Time;durP1;ratioP1;P1;durP2;ratioP2;P2;SDS_P1;SDS_P2;PMS_P1;PMS_P2;Temp;Humidity;BMP_temperature;BMP_pressure;BME280_temperature;BME280_humidity;BME280_pressure;Samples;Min_cycle;Max_cycle;Signal;HPM_P1;HPM_P2
2022/12/11 00:01:24;;;;;;;;;;;9.30;99.90;;;;;;5035934;28;20378;-69
2022/12/11 00:03:50;;;;;;;;;;;9.30;99.90;;;;;;5030310;28;19917;-67
2022/12/11 00:06:17;;;;;;;;;;;9.30;99.90;;;;;;5031952;28;19957;-69
2022/12/11 00:08:43;;;;;;;;;;;9.40;99.90;;;;;;5034400;28;20437;-68
2022/12/11 00:11:10;;;;;;;;;;;9.40;99.90;;;;;;5037095;28;20042;-67
2022/12/11 00:13:36;;;;;;;;;;;9.50;99.90;;;;;;5031503;28;20324;-68
2022/12/11 00:16:01;;;;;;;;;;;9.40;99.90;;;;;;5029568;28;19921;-66
2022/12/11 00:18:26;;;;;;;;;;;9.20;99.90;;;;;;5028683;28;20467;-68
2022/12/11 00:20:52;;;;;;;;;;;9.20;99.90;;;;;;5030104;28;19909;-68
2022/12/11 00:23:18;;;;;;;;;;;9.10;99.90;;;;;;5030074;28;20441;-69
2022/12/11 00:25:44;;;;;;;;;;;9.10;99.90;;;;;;5016329;28;20297;-68
2022/12/11 00:28:14;;;;;;;;;;;9.00;99.90;;;;;;5035356;28;19913;-66
2022/12/11 00:30:41;;;;;;;;;;;8.90;99.90;;;;;;5023294;28;20361;-67
2022/12/11 00:33:07;;;;;;;;;;;8.80;99.90;;;;;;5025658;28;19917;-69
2022/12/11 00:35:32;;;;;;;;;;;8.70;99.90;;;;;;5026621;28;19917;-67
2022/12/11 00:37:58;;;;;;;;;;;8.70;99.90;;;;;;5008167;28;20320;-68
2022/12/11 00:40:23;;;;;;;;;;;8.60;99.90;;;;;;5028325;28;19917;-67
2022/12/11 00:42:49;;;;;;;;;;;8.60;99.90;;;;;;5028191;28;19967;-66
2022/12/11 00:45:14;;;;;;;;;;;8.60;99.90;;;;;;5033459;28;19955;-68
2022/12/11 00:47:40;;;;;;;;;;;8.60;99.90;;;;;;5027102;28;19940;-68
2022/12/11 00:50:06;;;;;;;;;;;8.50;99.90;;;;;;5027851;28;20206;-68
2022/12/11 00:52:31;;;;;;;;;;;8.50;99.90;;;;;;5035181;28;19943;-67
2022/12/11 00:54:57;;;;;;;;;;;8.50;99.90;;;;;;5006396;28;19935;-68
2022/12/11 00:57:22;;;;;;;;;;;8.50;99.90;;;;;;5012757;28;19916;-67
2022/12/11 00:59:47;;;;;;;;;;;8.60;99.90;;;;;;5033242;28;20677;-68
2022/12/11 01:02:13;;;;;;;;;;;8.50;99.90;;;;;;5041975;28;19913;-68
2022/12/11 01:04:38;;;;;;;;;;;8.30;99.90;;;;;;5038473;28;19942;-68
2022/12/11 01:07:04;;;;;;;;;;;8.20;99.90;;;;;;5036582;28;20382;-68
2022/12/11 01:12:13;;;;;;;;;;;8.20;99.90;;;;;;5023536;28;19959;-67
2022/12/11 01:14:39;;;;;;;;;;;8.10;99.90;;;;;;5033350;28;20324;-66
2022/12/11 01:17:04;;;;;;;;;;;7.90;99.90;;;;;;5036809;28;19913;-67
2022/12/11 01:19:30;;;;;;;;;;;7.90;99.90;;;;;;5033298;28;20358;-69
2022/12/11 01:21:55;;;;;;;;;;;7.90;99.90;;;;;;5030870;28;19924;-69
2022/12/11 01:24:21;;;;;;;;;;;7.90;99.90;;;;;;5039313;28;20369;-68
2022/12/11 01:26:46;;;;;;;;;;;7.90;99.90;;;;;;5012487;28;20293;-68
2022/12/11 01:29:12;;;;;;;;;;;7.90;99.90;;;;;;5037386;28;19940;-68
2022/12/11 01:31:37;;;;;;;;;;;7.90;99.90;;;;;;5033598;28;19917;-67
2022/12/11 01:34:03;;;;;;;;;;;7.90;99.90;;;;;;5034209;28;19952;-68
2022/12/11 01:36:28;;;;;;;;;;;7.80;99.90;;;;;;5024538;28;19909;-68
2022/12/11 01:38:54;;;;;;;;;;;7.80;99.90;;;;;;5032754;28;19913;-68
2022/12/11 01:41:19;;;;;;;;;;;7.60;99.90;;;;;;5034346;28;20286;-68
2022/12/11 01:44:02;;;;;;;;;;;7.50;99.90;;;;;;5024936;28;19918;-67
2022/12/11 01:46:29;;;;;;;;;;;7.60;99.90;;;;;;5032270;28;19924;-67
2022/12/11 01:48:54;;;;;;;;;;;7.50;99.90;;;;;;5012230;28;19914;-67
2022/12/11 01:51:20;;;;;;;;;;;7.40;99.90;;;;;;5030084;28;19913;-67
2022/12/11 01:53:50;;;;;;;;;;;7.50;99.90;;;;;;5025366;28;19917;-68
2022/12/11 01:56:16;;;;;;;;;;;7.50;99.90;;;;;;5031189;28;19920;-67
2022/12/11 01:58:45;;;;;;;;;;;7.30;99.90;;;;;;5008569;28;19912;-67
2022/12/11 02:01:13;;;;;;;;;;;7.30;99.90;;;;;;5025786;28;19921;-68
2022/12/11 02:03:39;;;;;;;;;;;7.30;99.90;;;;;;5026395;28;19913;-67
2022/12/11 02:06:04;;;;;;;;;;;7.30;99.90;;;;;;5025852;28;20071;-68
2022/12/11 02:08:30;;;;;;;;;;;7.10;99.90;;;;;;5025890;28;19911;-67
2022/12/11 02:11:07;;;;;;;;;;;7.10;99.90;;;;;;5030434;28;19913;-67
2022/12/11 02:13:48;;;;;;;;;;;7.00;99.90;;;;;;5033800;28;19917;-68
2022/12/11 02:16:33;;;;;;;;;;;7.00;99.90;;;;;;5038379;28;19909;-67
2022/12/11 02:18:59;;;;;;;;;;;6.90;99.90;;;;;;5028892;28;19913;-68
2022/12/11 02:21:32;;;;;;;;;;;6.90;99.90;;;;;;5010063;28;19967;-70
2022/12/11 02:24:16;;;;;;;;;;;6.90;99.90;;;;;;5017295;28;19917;-68
2022/12/11 02:26:42;;;;;;;;;;;6.90;99.90;;;;;;5026923;28;19913;-67
2022/12/11 02:29:09;;;;;;;;;;;6.90;99.90;;;;;;5009493;28;20354;-66
2022/12/11 02:31:34;;;;;;;;;;;6.90;99.90;;;;;;5027703;28;19920;-69
2022/12/11 02:34:03;;;;;;;;;;;6.90;99.90;;;;;;5033273;28;19909;-67
2022/12/11 02:36:32;;;;;;;;;;;6.90;99.90;;;;;;5026940;28;19920;-67
2022/12/11 02:38:59;;;;;;;;;;;6.90;99.90;;;;;;5014544;28;19952;-67
2022/12/11 02:41:26;;;;;;;;;;;7.00;99.90;;;;;;5028408;28;19921;-66
2022/12/11 02:43:52;;;;;;;;;;;6.90;99.90;;;;;;5028537;28;19920;-68
2022/12/11 02:46:19;;;;;;;;;;;6.90;99.90;;;;;;5027626;28;20349;-67
2022/12/11 02:48:47;;;;;;;;;;;6.90;99.90;;;;;;5035353;28;20329;-67
2022/12/11 02:51:13;;;;;;;;;;;6.90;99.90;;;;;;5027333;28;19913;-68
2022/12/11 02:53:41;;;;;;;;;;;6.80;99.90;;;;;;5018373;28;19952;-69
2022/12/11 02:56:11;;;;;;;;;;;6.70;99.90;;;;;;5023159;28;19916;-68
2022/12/11 02:58:41;;;;;;;;;;;6.70;99.90;;;;;;5023133;28;20051;-67
2022/12/11 03:01:07;;;;;;;;;;;6.70;99.90;;;;;;5020284;28;20020;-68
2022/12/11 03:03:32;;;;;;;;;;;6.70;99.90;;;;;;5023218;28;20371;-68
2022/12/11 03:05:58;;;;;;;;;;;6.70;99.90;;;;;;5017051;28;19913;-68
2022/12/11 03:08:23;;;;;;;;;;;6.70;99.90;;;;;;5021345;28;19924;-67
2022/12/11 03:10:48;;;;;;;;;;;6.70;99.90;;;;;;5022538;28;19917;-68
2022/12/11 03:13:16;;;;;;;;;;;6.60;99.90;;;;;;5020382;28;19913;-68
2022/12/11 03:16:01;;;;;;;;;;;6.60;99.90;;;;;;5025140;28;19913;-66
2022/12/11 03:18:33;;;;;;;;;;;6.40;99.90;;;;;;5022859;28;19925;-67
2022/12/11 03:21:04;;;;;;;;;;;6.40;99.90;;;;;;5015167;28;19917;-67
2022/12/11 03:23:32;;;;;;;;;;;6.30;99.90;;;;;;5002112;28;20279;-68
2022/12/11 03:26:00;;;;;;;;;;;6.30;99.90;;;;;;5022473;28;19909;-69
2022/12/11 03:28:30;;;;;;;;;;;6.30;99.90;;;;;;5021696;28;20036;-69
2022/12/11 03:30:56;;;;;;;;;;;6.30;99.90;;;;;;5021943;28;19935;-67
2022/12/11 03:33:27;;;;;;;;;;;6.10;99.90;;;;;;5020314;28;19948;-67
2022/12/11 03:35:58;;;;;;;;;;;6.20;99.90;;;;;;5015770;28;19921;-67
2022/12/11 03:38:26;;;;;;;;;;;6.10;99.90;;;;;;5026049;28;19917;-67
2022/12/11 03:40:54;;;;;;;;;;;6.00;99.90;;;;;;5023060;28;19921;-67
2022/12/11 03:43:20;;;;;;;;;;;5.80;99.90;;;;;;5023024;28;20020;-68
2022/12/11 03:45:48;;;;;;;;;;;5.90;99.90;;;;;;5023384;28;19940;-68
2022/12/11 03:48:14;;;;;;;;;;;6.00;99.90;;;;;;5021464;28;19917;-67
2022/12/11 03:50:40;;;;;;;;;;;5.90;99.90;;;;;;5023103;28;20560;-67
2022/12/11 03:53:06;;;;;;;;;;;5.80;99.90;;;;;;5021058;28;20305;-68
2022/12/11 03:55:32;;;;;;;;;;;5.80;99.90;;;;;;5022643;28;20459;-68
2022/12/11 03:57:58;;;;;;;;;;;5.80;99.90;;;;;;5018624;28;19913;-68
2022/12/11 04:00:23;;;;;;;;;;;5.80;99.90;;;;;;5022684;28;19916;-67
2022/12/11 04:03:11;;;;;;;;;;;5.80;99.90;;;;;;5020306;28;19983;-68
2022/12/11 04:05:34;;;;;;;;;;;5.80;99.90;;;;;;5022024;28;20015;-67
2022/12/11 04:08:00;;;;;;;;;;;5.70;99.90;;;;;;5020556;28;20221;-68
2022/12/11 04:10:25;;;;;;;;;;;5.70;99.90;;;;;;5023410;28;20031;-68
2022/12/11 04:12:51;;;;;;;;;;;5.70;99.90;;;;;;5021329;28;19914;-67
2022/12/11 04:15:16;;;;;;;;;;;5.80;99.90;;;;;;5023405;28;20017;-67
2022/12/11 04:26:25;;;;;;;;;;;5.70;99.90;;;;;;5018378;28;19975;-69
2022/12/11 04:28:50;;;;;;;;;;;5.60;99.90;;;;;;5003040;28;20316;-67
2022/12/11 04:31:18;;;;;;;;;;;5.50;99.90;;;;;;5022640;28;19909;-69
2022/12/11 04:33:43;;;;;;;;;;;5.40;99.90;;;;;;5020003;28;20419;-68
2022/12/11 04:36:09;;;;;;;;;;;5.50;99.90;;;;;;5021993;28;19921;-67
2022/12/11 04:38:35;;;;;;;;;;;5.60;99.90;;;;;;5021208;28;19913;-68
2022/12/11 04:41:02;;;;;;;;;;;5.60;99.90;;;;;;5021970;28;20341;-69
2022/12/11 04:43:27;;;;;;;;;;;5.50;99.90;;;;;;5021925;28;19913;-67
2022/12/11 04:46:03;;;;;;;;;;;5.40;99.90;;;;;;5023456;28;19919;-68
2022/12/11 04:48:29;;;;;;;;;;;5.40;99.90;;;;;;5017687;28;20054;-68
2022/12/11 04:50:54;;;;;;;;;;;5.40;99.90;;;;;;5026098;28;19913;-68
2022/12/11 04:53:20;;;;;;;;;;;5.40;99.90;;;;;;5005971;28;19909;-67
2022/12/11 04:55:45;;;;;;;;;;;5.30;99.90;;;;;;5022717;28;19913;-68
2022/12/11 04:58:11;;;;;;;;;;;5.20;99.90;;;;;;5018871;28;19921;-67
2022/12/11 05:00:36;;;;;;;;;;;5.10;99.90;;;;;;5024356;28;19909;-67
2022/12/11 05:03:02;;;;;;;;;;;5.10;99.90;;;;;;5023086;28;20281;-68
2022/12/11 05:05:27;;;;;;;;;;;5.10;99.90;;;;;;5024386;28;19940;-68
2022/12/11 05:07:53;;;;;;;;;;;5.10;99.90;;;;;;5023852;28;19915;-67
2022/12/11 05:10:18;;;;;;;;;;;5.10;99.90;;;;;;5020807;28;19960;-68
2022/12/11 05:12:44;;;;;;;;;;;5.00;99.90;;;;;;5023704;28;19940;-67
2022/12/11 05:15:09;;;;;;;;;;;5.00;99.90;;;;;;5019953;28;19925;-67
2022/12/11 05:17:35;;;;;;;;;;;5.00;99.90;;;;;;5023628;28;20496;-67
2022/12/11 05:20:00;;;;;;;;;;;5.00;99.90;;;;;;5024950;28;19976;-68
2022/12/11 05:22:25;;;;;;;;;;;4.90;99.90;;;;;;5022175;28;19939;-69
2022/12/11 05:24:51;;;;;;;;;;;5.00;99.90;;;;;;5025166;28;19910;-67
2022/12/11 05:27:16;;;;;;;;;;;5.00;99.90;;;;;;5021353;28;20054;-67
2022/12/11 05:29:42;;;;;;;;;;;5.00;99.90;;;;;;5024494;28;19963;-68
2022/12/11 05:32:07;;;;;;;;;;;4.90;99.90;;;;;;5022844;28;19909;-68
2022/12/11 05:34:33;;;;;;;;;;;4.90;99.90;;;;;;5023309;28;20374;-67
2022/12/11 05:36:58;;;;;;;;;;;5.10;99.90;;;;;;5023298;28;20431;-70
2022/12/11 05:39:24;;;;;;;;;;;5.10;99.90;;;;;;5022254;28;19917;-67
2022/12/11 05:41:49;;;;;;;;;;;5.00;99.90;;;;;;5021601;28;19921;-68
2022/12/11 05:44:15;;;;;;;;;;;5.00;99.90;;;;;;5021859;28;20353;-68
2022/12/11 05:46:40;;;;;;;;;;;4.90;99.90;;;;;;5023095;28;20117;-68
2022/12/11 05:49:06;;;;;;;;;;;4.90;99.90;;;;;;5023930;28;19913;-67
2022/12/11 05:51:34;;;;;;;;;;;4.80;99.90;;;;;;5023058;28;20089;-68
2022/12/11 05:54:00;;;;;;;;;;;4.70;99.90;;;;;;5032087;28;19945;-67
2022/12/11 05:56:27;;;;;;;;;;;4.70;99.90;;;;;;5013470;28;20349;-67
2022/12/11 05:58:53;;;;;;;;;;;4.70;99.90;;;;;;5030319;28;19944;-68
2022/12/11 06:01:22;;;;;;;;;;;4.70;99.90;;;;;;5028065;28;19960;-68
2022/12/11 06:03:47;;;;;;;;;;;4.60;99.90;;;;;;5022029;28;19992;-67
2022/12/11 06:06:13;;;;;;;;;;;4.70;99.90;;;;;;5027140;28;19917;-68
2022/12/11 06:08:38;;;;;;;;;;;4.50;99.90;;;;;;5026647;28;19932;-69
2022/12/11 06:11:04;;;;;;;;;;;4.40;99.90;;;;;;5023319;28;19932;-67
2022/12/11 06:13:30;;;;;;;;;;;4.30;99.90;;;;;;5022207;28;19913;-67
2022/12/11 06:15:58;;;;;;;;;;;4.30;99.90;;;;;;5030122;28;19909;-68
2022/12/11 06:18:24;;;;;;;;;;;4.30;99.90;;;;;;5025340;28;19920;-68
2022/12/11 06:20:49;;;;;;;;;;;4.30;99.90;;;;;;5031927;28;20114;-66
2022/12/11 06:23:15;;;;;;;;;;;4.30;99.90;;;;;;5026428;28;19916;-67
2022/12/11 06:25:40;;;;;;;;;;;4.10;99.90;;;;;;5024187;28;19913;-67
2022/12/11 06:28:06;;;;;;;;;;;4.10;99.90;;;;;;5004781;28;19913;-68
2022/12/11 06:30:31;;;;;;;;;;;4.10;99.90;;;;;;5026917;28;20400;-69
2022/12/11 06:32:57;;;;;;;;;;;4.10;99.90;;;;;;5021745;28;20386;-67
2022/12/11 06:35:22;;;;;;;;;;;4.30;99.90;;;;;;5025344;28;19932;-68
2022/12/11 06:37:48;;;;;;;;;;;4.10;99.90;;;;;;5024695;28;20052;-67
2022/12/11 06:40:13;;;;;;;;;;;4.10;99.90;;;;;;5024163;28;20317;-67
2022/12/11 06:42:39;;;;;;;;;;;3.90;99.90;;;;;;5024370;28;19920;-67
2022/12/11 06:45:05;;;;;;;;;;;3.90;99.90;;;;;;5031074;28;20370;-68
2022/12/11 06:47:31;;;;;;;;;;;4.00;99.90;;;;;;5032016;28;19939;-68
2022/12/11 06:49:57;;;;;;;;;;;3.80;99.90;;;;;;5023493;28;19967;-68
2022/12/11 06:52:23;;;;;;;;;;;3.90;99.90;;;;;;5019201;28;20317;-67
2022/12/11 06:54:49;;;;;;;;;;;4.00;99.90;;;;;;5021553;28;19984;-66
2022/12/11 06:57:15;;;;;;;;;;;4.00;99.90;;;;;;5015645;28;20027;-66
2022/12/11 06:59:40;;;;;;;;;;;4.10;99.90;;;;;;5020888;28;19921;-68
2022/12/11 07:02:06;;;;;;;;;;;4.20;99.90;;;;;;5023412;28;19917;-68
2022/12/11 07:04:31;;;;;;;;;;;4.30;99.90;;;;;;5024522;28;20369;-68
2022/12/11 07:06:57;;;;;;;;;;;4.30;99.90;;;;;;5025351;28;19916;-67
2022/12/11 07:09:23;;;;;;;;;;;4.20;99.90;;;;;;5019874;28;19920;-69
2022/12/11 07:11:49;;;;;;;;;;;4.20;99.90;;;;;;5006296;28;19921;-67
2022/12/11 07:14:15;;;;;;;;;;;4.30;99.90;;;;;;5022342;28;19917;-69
2022/12/11 07:16:40;;;;;;;;;;;4.40;99.90;;;;;;5025055;28;19972;-68
2022/12/11 07:19:06;;;;;;;;;;;4.30;99.90;;;;;;5021590;28;19915;-68
2022/12/11 07:21:31;;;;;;;;;;;4.20;99.90;;;;;;5022081;28;20373;-68
2022/12/11 07:23:57;;;;;;;;;;;4.00;99.90;;;;;;5024295;28;20328;-67
2022/12/11 07:26:23;;;;;;;;;;;4.10;99.90;;;;;;5024577;28;19917;-68
2022/12/11 07:28:48;;;;;;;;;;;4.10;99.90;;;;;;5024513;28;19921;-69
2022/12/11 07:31:15;;;;;;;;;;;4.30;99.90;;;;;;5019927;28;19944;-68
2022/12/11 07:33:41;;;;;;;;;;;4.30;99.90;;;;;;5019532;28;19963;-67
2022/12/11 07:36:08;;;;;;;;;;;4.10;99.90;;;;;;5024424;28;19917;-67
2022/12/11 07:38:33;;;;;;;;;;;4.10;99.90;;;;;;5023995;28;19913;-67
2022/12/11 07:40:59;;;;;;;;;;;4.10;99.90;;;;;;5021801;28;19920;-69
2022/12/11 07:43:25;;;;;;;;;;;4.10;99.90;;;;;;5024288;28;19942;-68
2022/12/11 07:45:50;;;;;;;;;;;4.00;99.90;;;;;;5023504;28;20444;-68
2022/12/11 07:48:15;;;;;;;;;;;4.00;99.90;;;;;;5024350;28;20393;-68
2022/12/11 07:50:41;;;;;;;;;;;3.90;99.90;;;;;;5006918;28;20559;-68
2022/12/11 07:53:06;;;;;;;;;;;4.00;99.90;;;;;;5006244;28;19963;-69
2022/12/11 07:55:32;;;;;;;;;;;4.00;99.90;;;;;;5024420;28;19918;-69
2022/12/11 07:57:57;;;;;;;;;;;4.00;99.90;;;;;;5024290;28;19910;-69
2022/12/11 08:00:23;;;;;;;;;;;4.00;99.90;;;;;;5021800;28;19913;-67
2022/12/11 08:02:48;;;;;;;;;;;4.10;99.90;;;;;;5023320;28;20016;-67
2022/12/11 08:05:13;;;;;;;;;;;4.20;99.90;;;;;;5020157;28;19924;-68
2022/12/11 08:07:39;;;;;;;;;;;4.10;99.90;;;;;;5021317;28;19917;-68
2022/12/11 08:10:05;;;;;;;;;;;4.00;99.90;;;;;;5019511;28;20560;-68
2022/12/11 08:12:30;;;;;;;;;;;4.00;99.90;;;;;;5018266;28;20270;-68
2022/12/11 08:14:56;;;;;;;;;;;4.00;99.90;;;;;;5015518;28;20450;-67
2022/12/11 08:17:21;;;;;;;;;;;4.00;99.90;;;;;;5022458;28;20020;-68
2022/12/11 08:19:46;;;;;;;;;;;4.00;99.90;;;;;;5025241;28;19909;-66
2022/12/11 08:22:13;;;;;;;;;;;4.10;99.90;;;;;;5016079;28;19921;-67
2022/12/11 08:24:39;;;;;;;;;;;4.10;99.90;;;;;;5024432;28;20635;-65
2022/12/11 08:27:04;;;;;;;;;;;4.20;99.90;;;;;;5025530;28;19913;-65
2022/12/11 08:29:30;;;;;;;;;;;4.20;99.90;;;;;;5013249;28;19913;-64
2022/12/11 08:31:55;;;;;;;;;;;4.20;99.90;;;;;;5025233;28;19941;-64
2022/12/11 08:34:21;;;;;;;;;;;4.20;99.90;;;;;;5022007;28;19940;-65
2022/12/11 08:36:46;;;;;;;;;;;4.30;99.90;;;;;;5029686;28;19916;-65
2022/12/11 08:39:12;;;;;;;;;;;4.40;99.90;;;;;;5028250;28;20003;-65
2022/12/11 08:41:38;;;;;;;;;;;4.40;99.90;;;;;;5020839;28;19956;-65
2022/12/11 08:44:03;;;;;;;;;;;4.40;99.90;;;;;;5025839;28;20344;-66
2022/12/11 08:46:30;;;;;;;;;;;4.50;99.90;;;;;;5028944;28;19920;-68
2022/12/11 08:48:56;;;;;;;;;;;4.60;99.90;;;;;;5026554;28;19913;-67
2022/12/11 08:51:23;;;;;;;;;;;4.60;99.90;;;;;;5028980;28;19964;-67
2022/12/11 08:53:49;;;;;;;;;;;4.60;99.90;;;;;;5026643;28;19924;-67
2022/12/11 08:56:15;;;;;;;;;;;4.60;99.90;;;;;;5029256;28;19917;-68
2022/12/11 08:58:42;;;;;;;;;;;4.50;99.90;;;;;;5029428;28;19959;-67
2022/12/11 09:01:07;;;;;;;;;;;4.40;99.90;;;;;;5027138;28;19921;-66
2022/12/11 09:03:33;;;;;;;;;;;4.40;99.90;;;;;;5024639;28;20023;-67
2022/12/11 09:05:59;;;;;;;;;;;4.40;99.90;;;;;;5026040;28;20443;-68
2022/12/11 09:08:24;;;;;;;;;;;4.50;99.90;;;;;;5024642;28;19913;-67
2022/12/11 09:10:50;;;;;;;;;;;4.50;99.90;;;;;;5026677;28;19971;-67
2022/12/11 09:13:15;;;;;;;;;;;4.50;99.90;;;;;;5024569;28;20441;-69
2022/12/11 09:15:41;;;;;;;;;;;4.60;99.90;;;;;;5031144;28;19913;-68
2022/12/11 09:18:07;;;;;;;;;;;4.80;99.90;;;;;;5022948;28;20511;-67
2022/12/11 09:20:32;;;;;;;;;;;4.80;99.90;;;;;;5023744;28;19913;-67
2022/12/11 09:22:58;;;;;;;;;;;4.80;99.90;;;;;;5021277;28;19917;-69
2022/12/11 09:25:23;;;;;;;;;;;4.70;99.90;;;;;;5023003;28;20043;-66
2022/12/11 09:27:48;;;;;;;;;;;4.80;99.90;;;;;;5023787;28;19917;-67
2022/12/11 09:30:14;;;;;;;;;;;4.80;99.90;;;;;;5016004;28;20332;-67
2022/12/11 09:32:40;;;;;;;;;;;4.90;99.90;;;;;;5030711;28;19984;-67
2022/12/11 09:35:05;;;;;;;;;;;4.90;99.90;;;;;;5030085;28;20326;-67
2022/12/11 09:37:32;;;;;;;;;;;4.80;99.90;;;;;;5023433;28;19916;-66
2022/12/11 09:39:57;;;;;;;;;;;5.00;99.90;;;;;;5031321;28;19951;-67
2022/12/11 09:42:29;;;;;;;;;;;5.10;99.90;;;;;;5026130;28;19929;-68
2022/12/11 09:44:56;;;;;;;;;;;5.20;99.90;;;;;;5021268;28;20025;-67
2022/12/11 09:47:21;;;;;;;;;;;5.20;99.90;;;;;;5024689;28;19921;-67
2022/12/11 09:49:48;;;;;;;;;;;5.30;99.90;;;;;;5025940;28;20008;-68
2022/12/11 09:52:28;;;;;;;;;;;5.30;99.90;;;;;;5021063;28;19909;-68
2022/12/11 09:55:02;;;;;;;;;;;5.30;99.90;;;;;;5010368;28;20000;-67
2022/12/11 09:57:31;;;;;;;;;;;5.40;99.90;;;;;;5024772;28;20354;-69
2022/12/11 09:59:57;;;;;;;;;;;5.40;99.90;;;;;;5025886;28;19936;-67
2022/12/11 10:02:41;;;;;;;;;;;5.30;99.90;;;;;;5025939;28;20445;-66
2022/12/11 10:05:30;;;;;;;;;;;5.20;99.90;;;;;;5023419;28;19909;-67
2022/12/11 10:08:00;;;;;;;;;;;5.10;99.90;;;;;;5021341;28;19919;-68
2022/12/11 10:10:37;;;;;;;;;;;5.10;99.90;;;;;;5025432;28;20489;-67
2022/12/11 10:13:20;;;;;;;;;;;5.20;99.90;;;;;;5024047;28;20359;-65
2022/12/11 10:15:56;;;;;;;;;;;5.30;99.90;;;;;;5025814;28;19956;-67
2022/12/11 10:18:23;;;;;;;;;;;5.30;99.90;;;;;;5023818;28;20270;-67
2022/12/11 10:20:51;;;;;;;;;;;5.20;99.90;;;;;;5023445;28;20412;-67
2022/12/11 10:23:37;;;;;;;;;;;5.20;99.90;;;;;;5023341;28;20235;-67
2022/12/11 10:26:05;;;;;;;;;;;5.20;99.90;;;;;;5022003;28;19944;-67
2022/12/11 10:28:31;;;;;;;;;;;5.20;99.90;;;;;;5025416;28;19984;-68
2022/12/11 10:31:15;;;;;;;;;;;5.20;99.90;;;;;;5025670;28;19959;-67
2022/12/11 10:33:44;;;;;;;;;;;5.20;99.90;;;;;;5025556;28;19909;-67
2022/12/11 10:36:09;;;;;;;;;;;5.20;99.90;;;;;;5021999;28;19922;-66
2022/12/11 10:38:41;;;;;;;;;;;5.20;99.90;;;;;;5028698;28;19917;-68
2022/12/11 10:41:11;;;;;;;;;;;5.30;99.90;;;;;;5025472;28;19975;-67
2022/12/11 10:43:38;;;;;;;;;;;5.30;99.90;;;;;;5011168;28;20263;-67
2022/12/11 10:46:05;;;;;;;;;;;5.20;99.90;;;;;;5024715;28;20028;-67
2022/12/11 10:48:31;;;;;;;;;;;5.10;99.90;;;;;;5024039;28;20258;-67
2022/12/11 10:51:02;;;;;;;;;;;5.10;99.90;;;;;;5026637;28;19960;-66
2022/12/11 10:53:28;;;;;;;;;;;5.20;99.90;;;;;;5022678;28;19917;-68
2022/12/11 10:55:54;;;;;;;;;;;5.40;99.90;;;;;;5018919;28;20310;-67
2022/12/11 10:58:21;;;;;;;;;;;5.60;99.90;;;;;;5022302;28;19921;-66
2022/12/11 11:00:59;;;;;;;;;;;5.60;99.90;;;;;;5021256;28;19915;-66
2022/12/11 11:03:25;;;;;;;;;;;5.50;99.90;;;;;;5022120;28;19917;-68
2022/12/11 11:06:23;;;;;;;;;;;5.50;99.90;;;;;;5017150;28;19924;-66
2022/12/11 11:08:53;;;;;;;;;;;5.50;99.90;;;;;;5004135;28;20528;-67
2022/12/11 11:11:21;;;;;;;;;;;5.50;99.90;;;;;;5024639;28;20230;-68
2022/12/11 11:13:47;;;;;;;;;;;5.40;99.90;;;;;;5022979;28;19959;-67
2022/12/11 11:16:14;;;;;;;;;;;5.40;99.90;;;;;;5022885;28;19909;-68
2022/12/11 11:18:40;;;;;;;;;;;5.50;99.90;;;;;;5008138;28;20405;-68
2022/12/11 11:21:14;;;;;;;;;;;5.60;99.90;;;;;;5025842;28;20101;-67
2022/12/11 11:23:39;;;;;;;;;;;5.40;99.90;;;;;;5019084;28;19921;-68
2022/12/11 11:26:06;;;;;;;;;;;5.40;99.90;;;;;;5026438;28;19910;-67
2022/12/11 11:28:45;;;;;;;;;;;5.30;99.90;;;;;;5024210;28;20298;-68
2022/12/11 11:31:12;;;;;;;;;;;5.40;99.90;;;;;;5022710;28;19913;-68
2022/12/11 11:34:04;;;;;;;;;;;5.30;99.90;;;;;;5001406;28;19980;-69
2022/12/11 11:36:30;;;;;;;;;;;5.30;99.90;;;;;;5025359;28;19974;-69
2022/12/11 11:39:16;;;;;;;;;;;5.20;99.90;;;;;;5028792;28;20268;-67
2022/12/11 11:41:54;;;;;;;;;;;5.20;99.90;;;;;;5025666;28;19921;-67
2022/12/11 11:44:24;;;;;;;;;;;5.30;99.90;;;;;;5020784;28;20366;-70
2022/12/11 11:46:54;;;;;;;;;;;5.20;99.90;;;;;;5021841;28;19924;-68
2022/12/11 11:49:30;;;;;;;;;;;5.20;99.90;;;;;;5022462;28;19986;-69
2022/12/11 11:52:08;;;;;;;;;;;5.20;99.90;;;;;;5022498;28;19913;-68
2022/12/11 11:54:35;;;;;;;;;;;5.30;99.90;;;;;;5019640;28;20295;-69
2022/12/11 11:57:04;;;;;;;;;;;5.30;99.90;;;;;;5017996;28;20007;-67
2022/12/11 11:59:41;;;;;;;;;;;5.40;99.90;;;;;;5022679;28;19917;-68
2022/12/11 12:02:12;;;;;;;;;;;5.50;99.90;;;;;;5025096;28;19975;-68
2022/12/11 12:04:38;;;;;;;;;;;5.20;99.90;;;;;;5029245;28;20064;-69
2022/12/11 12:07:15;;;;;;;;;;;5.30;99.90;;;;;;5024416;28;19921;-68
2022/12/11 12:09:53;;;;;;;;;;;5.40;99.90;;;;;;5024556;28;19987;-67
2022/12/11 12:12:37;;;;;;;;;;;5.50;99.90;;;;;;5028401;28;20264;-68
2022/12/11 12:15:11;;;;;;;;;;;5.50;99.90;;;;;;5033991;28;19913;-67
2022/12/11 12:17:57;;;;;;;;;;;5.40;99.90;;;;;;5020580;28;19913;-70
2022/12/11 12:20:41;;;;;;;;;;;5.30;99.90;;;;;;5028009;28;19944;-67
2022/12/11 12:23:19;;;;;;;;;;;5.20;99.90;;;;;;5022815;28;19924;-70
2022/12/11 12:25:47;;;;;;;;;;;5.20;99.90;;;;;;5027716;28;20016;-67
2022/12/11 12:28:25;;;;;;;;;;;5.20;99.90;;;;;;5037955;28;20387;-66
2022/12/11 12:31:09;;;;;;;;;;;5.20;99.90;;;;;;5028049;28;19908;-69
2022/12/11 12:33:44;;;;;;;;;;;5.20;99.90;;;;;;5022593;28;19913;-68
2022/12/11 12:36:12;;;;;;;;;;;5.20;99.90;;;;;;5010492;28;20409;-68
2022/12/11 12:38:50;;;;;;;;;;;5.10;99.90;;;;;;5023587;28;19909;-69
2022/12/11 12:41:28;;;;;;;;;;;5.00;99.90;;;;;;5022459;28;19917;-68
2022/12/11 12:44:02;;;;;;;;;;;5.10;99.90;;;;;;5024840;28;19982;-68
2022/12/11 12:46:51;;;;;;;;;;;5.00;99.90;;;;;;5003297;28;19913;-68
2022/12/11 12:49:26;;;;;;;;;;;4.90;99.90;;;;;;4999490;28;19909;-69
2022/12/11 12:51:52;;;;;;;;;;;4.90;99.90;;;;;;5028484;28;19953;-67
2022/12/11 12:54:18;;;;;;;;;;;4.80;99.90;;;;;;5024714;28;19956;-68
2022/12/11 12:56:45;;;;;;;;;;;4.90;99.90;;;;;;5027345;28;19917;-68
2022/12/11 12:59:21;;;;;;;;;;;4.80;99.90;;;;;;5025090;28;19919;-68
2022/12/11 13:01:51;;;;;;;;;;;4.70;99.90;;;;;;5025813;28;20371;-68
2022/12/11 13:04:35;;;;;;;;;;;4.70;99.90;;;;;;5025167;28;20020;-69
2022/12/11 13:07:26;;;;;;;;;;;4.80;99.90;;;;;;5009750;28;19909;-73
2022/12/11 13:09:55;;;;;;;;;;;4.70;99.90;;;;;;5024995;28;19920;-68
2022/12/11 13:12:29;;;;;;;;;;;4.60;99.90;;;;;;5027772;28;20274;-68
2022/12/11 13:14:55;;;;;;;;;;;4.70;99.90;;;;;;5021010;28;19909;-71
2022/12/11 13:17:20;;;;;;;;;;;4.80;99.90;;;;;;5025518;28;19917;-68
2022/12/11 13:19:47;;;;;;;;;;;4.90;99.90;;;;;;5029079;28;19909;-69
2022/12/11 13:22:13;;;;;;;;;;;4.90;99.90;;;;;;5020859;28;20366;-69
2022/12/11 13:24:48;;;;;;;;;;;4.80;99.90;;;;;;5029153;28;19924;-68
2022/12/11 13:27:22;;;;;;;;;;;4.80;99.90;;;;;;5026460;28;20027;-67
2022/12/11 13:29:48;;;;;;;;;;;4.80;99.90;;;;;;5028605;28;19916;-67
2022/12/11 13:32:16;;;;;;;;;;;4.60;99.90;;;;;;5028631;28;19939;-67
2022/12/11 13:34:43;;;;;;;;;;;4.50;99.90;;;;;;5027744;28;20505;-67
2022/12/11 13:37:27;;;;;;;;;;;4.40;99.90;;;;;;5027784;28;20003;-67
2022/12/11 13:39:53;;;;;;;;;;;4.30;99.90;;;;;;5029238;28;20015;-67
2022/12/11 13:42:22;;;;;;;;;;;4.40;99.90;;;;;;5026140;28;20444;-66
2022/12/11 13:44:48;;;;;;;;;;;4.30;99.90;;;;;;5027462;28;19953;-67
2022/12/11 13:47:16;;;;;;;;;;;4.50;99.90;;;;;;5025950;28;19953;-67
2022/12/11 13:49:43;;;;;;;;;;;4.60;99.90;;;;;;5028387;28;19948;-67
2022/12/11 13:52:19;;;;;;;;;;;4.70;99.90;;;;;;5025656;28;19991;-67
2022/12/11 13:54:49;;;;;;;;;;;4.60;99.90;;;;;;5027797;28;19913;-70
2022/12/11 13:57:16;;;;;;;;;;;4.60;99.90;;;;;;5025615;28;19933;-68
2022/12/11 13:59:46;;;;;;;;;;;4.50;99.90;;;;;;5009647;28;19917;-68
2022/12/11 14:02:21;;;;;;;;;;;4.50;99.90;;;;;;5004366;28;19913;-69
2022/12/11 14:04:47;;;;;;;;;;;4.30;99.90;;;;;;5031134;28;19964;-68
2022/12/11 14:07:16;;;;;;;;;;;4.20;99.90;;;;;;5024530;28;19933;-67
2022/12/11 14:09:42;;;;;;;;;;;4.20;99.90;;;;;;5025827;28;20008;-67
2022/12/11 14:12:16;;;;;;;;;;;4.20;99.90;;;;;;5027339;28;19913;-67
2022/12/11 14:14:44;;;;;;;;;;;3.90;99.90;;;;;;5018384;28;19913;-68
2022/12/11 14:17:13;;;;;;;;;;;3.80;99.90;;;;;;5024922;28;19921;-67
2022/12/11 14:19:44;;;;;;;;;;;3.80;99.90;;;;;;5022398;28;19913;-67
2022/12/11 14:22:16;;;;;;;;;;;3.70;99.90;;;;;;5023141;28;20440;-68
2022/12/11 14:24:47;;;;;;;;;;;3.60;99.90;;;;;;5028924;28;19917;-69
2022/12/11 14:27:14;;;;;;;;;;;3.60;99.90;;;;;;5023024;28;19921;-67
2022/12/11 14:29:40;;;;;;;;;;;3.50;99.90;;;;;;5018128;28;20007;-68
2022/12/11 14:32:06;;;;;;;;;;;3.40;99.90;;;;;;5022417;28;20281;-67
2022/12/11 14:34:33;;;;;;;;;;;3.40;99.90;;;;;;5023563;28;19909;-68
2022/12/11 14:37:00;;;;;;;;;;;3.40;99.90;;;;;;5022285;28;19956;-68
2022/12/11 14:39:32;;;;;;;;;;;3.30;99.90;;;;;;5026861;28;20106;-67
2022/12/11 14:42:07;;;;;;;;;;;3.40;99.90;;;;;;5006141;28;20302;-67
2022/12/11 14:44:54;;;;;;;;;;;3.40;99.90;;;;;;5024940;28;19913;-68
2022/12/11 14:47:24;;;;;;;;;;;3.30;99.90;;;;;;5018576;28;19972;-67
2022/12/11 14:49:53;;;;;;;;;;;3.20;99.90;;;;;;5023033;28;19917;-69